sensor_id;sensor_type;location;lat;lon;timestamp;temperature;humidity
59847;DHT22;45728;48.788;2.302;2022-12-29T00:00:10;11.70;99.90
59847;DHT22;45728;48.788;2.302;2022-12-29T00:02:36;11.70;99.90
59847;DHT22;45728;48.788;2.302;2022-12-29T00:05:02;11.70;99.90
59847;DHT22;45728;48.788;2.302;2022-12-29T00:07:29;11.80;99.90
59847;DHT22;45728;48.788;2.302;2022-12-29T00:09:55;11.70;99.90
59847;DHT22;45728;48.788;2.302;2022-12-29T00:12:21;11.80;99.90
59847;DHT22;45728;48.788;2.302;2022-12-29T00:14:47;11.80;99.90
59847;DHT22;45728;48.788;2.302;2022-12-29T00:17:31;11.80;99.90
59847;DHT22;45728;48.788;2.302;2022-12-29T00:19:57;11.80;99.90
59847;DHT22;45728;48.788;2.302;2022-12-29T00:22:42;11.80;99.90
59847;DHT22;45728;48.788;2.302;2022-12-29T00:25:26;11.80;99.90
59847;DHT22;45728;48.788;2.302;2022-12-29T00:28:11;11.80;99.90
59847;DHT22;45728;48.788;2.302;2022-12-29T00:30:59;11.80;99.90
59847;DHT22;45728;48.788;2.302;2022-12-29T00:33:43;11.80;99.90
59847;DHT22;45728;48.788;2.302;2022-12-29T00:36:32;11.80;99.90
59847;DHT22;45728;48.788;2.302;2022-12-29T00:39:07;11.80;99.90
59847;DHT22;45728;48.788;2.302;2022-12-29T00:41:54;11.80;99.90
59847;DHT22;45728;48.788;2.302;2022-12-29T00:44:38;11.80;99.90
59847;DHT22;45728;48.788;2.302;2022-12-29T00:47:04;11.70;99.90
59847;DHT22;45728;48.788;2.302;2022-12-29T00:49:31;11.70;99.90
59847;DHT22;45728;48.788;2.302;2022-12-29T00:55:01;11.70;99.90
59847;DHT22;45728;48.788;2.302;2022-12-29T00:57:27;11.70;99.90
59847;DHT22;45728;48.788;2.302;2022-12-29T00:59:53;11.70;99.90
59847;DHT22;45728;48.788;2.302;2022-12-29T01:02:19;11.70;99.90
59847;DHT22;45728;48.788;2.302;2022-12-29T01:04:45;11.70;99.90
59847;DHT22;45728;48.788;2.302;2022-12-29T01:07:11;11.70;99.90
59847;DHT22;45728;48.788;2.302;2022-12-29T01:09:37;11.70;99.90
59847;DHT22;45728;48.788;2.302;2022-12-29T01:12:22;11.70;99.90
59847;DHT22;45728;48.788;2.302;2022-12-29T01:15:07;11.80;99.90
59847;DHT22;45728;48.788;2.302;2022-12-29T01:17:34;11.90;99.90
59847;DHT22;45728;48.788;2.302;2022-12-29T01:20:00;11.80;99.90
59847;DHT22;45728;48.788;2.302;2022-12-29T01:22:27;11.80;99.90
59847;DHT22;45728;48.788;2.302;2022-12-29T01:24:53;11.80;99.90
59847;DHT22;45728;48.788;2.302;2022-12-29T01:27:19;11.80;99.90
59847;DHT22;45728;48.788;2.302;2022-12-29T01:29:45;11.80;99.90
59847;DHT22;45728;48.788;2.302;2022-12-29T01:32:11;11.80;99.90
59847;DHT22;45728;48.788;2.302;2022-12-29T01:34:37;11.80;99.90
59847;DHT22;45728;48.788;2.302;2022-12-29T01:37:03;11.90;99.90
59847;DHT22;45728;48.788;2.302;2022-12-29T01:39:29;11.80;99.90
59847;DHT22;45728;48.788;2.302;2022-12-29T01:41:55;11.80;99.90
59847;DHT22;45728;48.788;2.302;2022-12-29T01:47:38;11.80;99.90
59847;DHT22;45728;48.788;2.302;2022-12-29T01:50:49;11.80;99.90
59847;DHT22;45728;48.788;2.302;2022-12-29T01:53:01;11.80;99.90
59847;DHT22;45728;48.788;2.302;2022-12-29T01:55:29;11.70;99.90
59847;DHT22;45728;48.788;2.302;2022-12-29T01:57:59;11.70;99.90
59847;DHT22;45728;48.788;2.302;2022-12-29T02:00:26;11.70;99.90
59847;DHT22;45728;48.788;2.302;2022-12-29T02:02:53;11.70;99.90
59847;DHT22;45728;48.788;2.302;2022-12-29T02:07:54;11.60;99.90
59847;DHT22;45728;48.788;2.302;2022-12-29T02:10:22;11.70;99.90
59847;DHT22;45728;48.788;2.302;2022-12-29T02:12:49;11.60;99.90
59847;DHT22;45728;48.788;2.302;2022-12-29T02:15:16;11.60;99.90
59847;DHT22;45728;48.788;2.302;2022-12-29T02:34:05;11.10;99.90
59847;DHT22;45728;48.788;2.302;2022-12-29T02:42:56;11.00;99.90
59847;DHT22;45728;48.788;2.302;2022-12-29T02:45:53;10.90;99.90
59847;DHT22;45728;48.788;2.302;2022-12-29T02:48:29;10.90;99.90
59847;DHT22;45728;48.788;2.302;2022-12-29T02:51:10;10.90;99.90
59847;DHT22;45728;48.788;2.302;2022-12-29T02:53:39;10.90;99.90
59847;DHT22;45728;48.788;2.302;2022-12-29T02:56:24;10.90;99.90
59847;DHT22;45728;48.788;2.302;2022-12-29T02:58:50;10.80;99.90
59847;DHT22;45728;48.788;2.302;2022-12-29T03:07:08;10.90;99.90
59847;DHT22;45728;48.788;2.302;2022-12-29T03:09:47;10.90;99.90
59847;DHT22;45728;48.788;2.302;2022-12-29T03:15:29;10.90;99.90
59847;DHT22;45728;48.788;2.302;2022-12-29T03:18:24;10.90;99.90
59847;DHT22;45728;48.788;2.302;2022-12-29T03:21:01;10.90;99.90
59847;DHT22;45728;48.788;2.302;2022-12-29T03:23:30;10.80;99.90
59847;DHT22;45728;48.788;2.302;2022-12-29T03:26:00;10.80;99.90
59847;DHT22;45728;48.788;2.302;2022-12-29T03:28:39;10.70;99.90
59847;DHT22;45728;48.788;2.302;2022-12-29T03:31:08;10.70;99.90
59847;DHT22;45728;48.788;2.302;2022-12-29T03:33:35;10.70;99.90
59847;DHT22;45728;48.788;2.302;2022-12-29T03:36:07;10.70;99.90
59847;DHT22;45728;48.788;2.302;2022-12-29T03:38:39;10.70;99.90
59847;DHT22;45728;48.788;2.302;2022-12-29T03:41:11;10.70;99.90
59847;DHT22;45728;48.788;2.302;2022-12-29T03:43:39;10.70;99.90
59847;DHT22;45728;48.788;2.302;2022-12-29T03:46:05;10.80;99.90
59847;DHT22;45728;48.788;2.302;2022-12-29T03:48:31;10.80;99.90
59847;DHT22;45728;48.788;2.302;2022-12-29T03:50:58;10.80;99.90
59847;DHT22;45728;48.788;2.302;2022-12-29T03:53:24;10.80;99.90
59847;DHT22;45728;48.788;2.302;2022-12-29T03:55:50;10.80;99.90
59847;DHT22;45728;48.788;2.302;2022-12-29T03:58:17;10.80;99.90
59847;DHT22;45728;48.788;2.302;2022-12-29T04:00:43;10.90;99.90
59847;DHT22;45728;48.788;2.302;2022-12-29T04:03:09;10.80;99.90
59847;DHT22;45728;48.788;2.302;2022-12-29T04:05:35;10.90;99.90
59847;DHT22;45728;48.788;2.302;2022-12-29T04:08:01;10.90;99.90
59847;DHT22;45728;48.788;2.302;2022-12-29T04:10:27;10.90;99.90
59847;DHT22;45728;48.788;2.302;2022-12-29T04:12:53;10.90;99.90
59847;DHT22;45728;48.788;2.302;2022-12-29T04:15:19;11.00;99.90
59847;DHT22;45728;48.788;2.302;2022-12-29T04:17:45;10.90;99.90
59847;DHT22;45728;48.788;2.302;2022-12-29T04:20:11;10.90;99.90
59847;DHT22;45728;48.788;2.302;2022-12-29T04:23:03;10.90;99.90
59847;DHT22;45728;48.788;2.302;2022-12-29T04:25:31;10.90;99.90
59847;DHT22;45728;48.788;2.302;2022-12-29T04:27:57;11.00;99.90
59847;DHT22;45728;48.788;2.302;2022-12-29T04:30:24;10.90;99.90
59847;DHT22;45728;48.788;2.302;2022-12-29T04:32:50;10.90;99.90
59847;DHT22;45728;48.788;2.302;2022-12-29T04:35:16;11.00;99.90
59847;DHT22;45728;48.788;2.302;2022-12-29T04:37:42;11.00;99.90
59847;DHT22;45728;48.788;2.302;2022-12-29T04:40:09;11.00;99.90
59847;DHT22;45728;48.788;2.302;2022-12-29T04:42:35;11.00;99.90
59847;DHT22;45728;48.788;2.302;2022-12-29T04:45:01;11.00;99.90
59847;DHT22;45728;48.788;2.302;2022-12-29T04:47:27;11.00;99.90
59847;DHT22;45728;48.788;2.302;2022-12-29T04:49:54;10.90;99.90
59847;DHT22;45728;48.788;2.302;2022-12-29T04:52:20;10.90;99.90
59847;DHT22;45728;48.788;2.302;2022-12-29T04:54:46;10.90;99.90
59847;DHT22;45728;48.788;2.302;2022-12-29T04:57:12;10.90;99.90
59847;DHT22;45728;48.788;2.302;2022-12-29T04:59:38;10.90;99.90
59847;DHT22;45728;48.788;2.302;2022-12-29T05:02:04;10.90;99.90
59847;DHT22;45728;48.788;2.302;2022-12-29T05:04:30;10.80;99.90
59847;DHT22;45728;48.788;2.302;2022-12-29T05:06:56;10.80;99.90
59847;DHT22;45728;48.788;2.302;2022-12-29T05:09:22;10.80;99.90
59847;DHT22;45728;48.788;2.302;2022-12-29T05:11:49;10.80;99.90
59847;DHT22;45728;48.788;2.302;2022-12-29T05:14:15;10.90;99.90
59847;DHT22;45728;48.788;2.302;2022-12-29T05:16:41;10.80;99.90
59847;DHT22;45728;48.788;2.302;2022-12-29T05:19:07;10.80;99.90
59847;DHT22;45728;48.788;2.302;2022-12-29T05:21:33;10.80;99.90
59847;DHT22;45728;48.788;2.302;2022-12-29T05:24:00;10.80;99.90
59847;DHT22;45728;48.788;2.302;2022-12-29T05:26:26;10.90;99.90
59847;DHT22;45728;48.788;2.302;2022-12-29T05:28:52;10.80;99.90
59847;DHT22;45728;48.788;2.302;2022-12-29T05:31:18;10.90;99.90
59847;DHT22;45728;48.788;2.302;2022-12-29T05:33:44;10.90;99.90
59847;DHT22;45728;48.788;2.302;2022-12-29T05:36:10;10.90;99.90
59847;DHT22;45728;48.788;2.302;2022-12-29T05:38:37;10.90;99.90
59847;DHT22;45728;48.788;2.302;2022-12-29T05:41:03;10.80;99.90
59847;DHT22;45728;48.788;2.302;2022-12-29T05:43:29;10.80;99.90
59847;DHT22;45728;48.788;2.302;2022-12-29T05:45:56;10.70;99.90
59847;DHT22;45728;48.788;2.302;2022-12-29T05:48:23;10.80;99.90
59847;DHT22;45728;48.788;2.302;2022-12-29T05:50:50;10.70;99.90
59847;DHT22;45728;48.788;2.302;2022-12-29T05:53:16;10.70;99.90
59847;DHT22;45728;48.788;2.302;2022-12-29T05:55:43;10.70;99.90
59847;DHT22;45728;48.788;2.302;2022-12-29T05:58:10;10.70;99.90
59847;DHT22;45728;48.788;2.302;2022-12-29T06:00:36;10.70;99.90
59847;DHT22;45728;48.788;2.302;2022-12-29T06:03:03;10.70;99.90
59847;DHT22;45728;48.788;2.302;2022-12-29T06:05:29;10.70;99.90
59847;DHT22;45728;48.788;2.302;2022-12-29T06:07:55;10.70;99.90
59847;DHT22;45728;48.788;2.302;2022-12-29T06:10:21;10.70;99.90
59847;DHT22;45728;48.788;2.302;2022-12-29T06:12:47;10.70;99.90
59847;DHT22;45728;48.788;2.302;2022-12-29T06:15:14;10.70;99.90
59847;DHT22;45728;48.788;2.302;2022-12-29T06:17:40;10.60;99.90
59847;DHT22;45728;48.788;2.302;2022-12-29T06:20:08;10.60;99.90
59847;DHT22;45728;48.788;2.302;2022-12-29T06:22:34;10.70;99.90
59847;DHT22;45728;48.788;2.302;2022-12-29T06:25:00;10.60;99.90
59847;DHT22;45728;48.788;2.302;2022-12-29T06:27:27;10.60;99.90
59847;DHT22;45728;48.788;2.302;2022-12-29T06:29:54;10.60;99.90
59847;DHT22;45728;48.788;2.302;2022-12-29T06:32:20;10.60;99.90
59847;DHT22;45728;48.788;2.302;2022-12-29T06:34:46;10.60;99.90
59847;DHT22;45728;48.788;2.302;2022-12-29T06:37:12;10.50;99.90
59847;DHT22;45728;48.788;2.302;2022-12-29T06:39:38;10.50;99.90
59847;DHT22;45728;48.788;2.302;2022-12-29T06:42:05;10.50;99.90
59847;DHT22;45728;48.788;2.302;2022-12-29T06:44:31;10.50;99.90
59847;DHT22;45728;48.788;2.302;2022-12-29T06:46:57;10.50;99.90
59847;DHT22;45728;48.788;2.302;2022-12-29T06:49:23;10.40;99.90
59847;DHT22;45728;48.788;2.302;2022-12-29T06:51:49;10.40;99.90
59847;DHT22;45728;48.788;2.302;2022-12-29T06:54:15;10.50;99.90
59847;DHT22;45728;48.788;2.302;2022-12-29T06:56:41;10.40;99.90
59847;DHT22;45728;48.788;2.302;2022-12-29T06:59:09;10.40;99.90
59847;DHT22;45728;48.788;2.302;2022-12-29T07:01:35;10.40;99.90
59847;DHT22;45728;48.788;2.302;2022-12-29T07:04:02;10.50;99.90
59847;DHT22;45728;48.788;2.302;2022-12-29T07:06:29;10.40;99.90
59847;DHT22;45728;48.788;2.302;2022-12-29T07:08:55;10.40;99.90
59847;DHT22;45728;48.788;2.302;2022-12-29T07:11:23;10.40;99.90
59847;DHT22;45728;48.788;2.302;2022-12-29T07:13:49;10.40;99.90
59847;DHT22;45728;48.788;2.302;2022-12-29T07:16:15;10.50;99.90
59847;DHT22;45728;48.788;2.302;2022-12-29T07:18:42;10.40;99.90
59847;DHT22;45728;48.788;2.302;2022-12-29T07:21:08;10.40;99.90
59847;DHT22;45728;48.788;2.302;2022-12-29T07:23:35;10.40;99.90
59847;DHT22;45728;48.788;2.302;2022-12-29T07:26:02;10.40;99.90
59847;DHT22;45728;48.788;2.302;2022-12-29T07:28:29;10.40;99.90
59847;DHT22;45728;48.788;2.302;2022-12-29T07:30:55;10.40;99.90
59847;DHT22;45728;48.788;2.302;2022-12-29T07:33:21;10.40;99.90
59847;DHT22;45728;48.788;2.302;2022-12-29T07:35:47;10.40;99.90
59847;DHT22;45728;48.788;2.302;2022-12-29T07:38:14;10.30;99.90
59847;DHT22;45728;48.788;2.302;2022-12-29T07:40:40;10.30;99.90
59847;DHT22;45728;48.788;2.302;2022-12-29T07:43:06;10.40;99.90
59847;DHT22;45728;48.788;2.302;2022-12-29T07:45:32;10.30;99.90
59847;DHT22;45728;48.788;2.302;2022-12-29T07:47:58;10.30;99.90
59847;DHT22;45728;48.788;2.302;2022-12-29T07:50:24;10.30;99.90
59847;DHT22;45728;48.788;2.302;2022-12-29T07:52:50;10.30;99.90
59847;DHT22;45728;48.788;2.302;2022-12-29T07:55:17;10.30;99.90
59847;DHT22;45728;48.788;2.302;2022-12-29T07:57:43;10.40;99.90
59847;DHT22;45728;48.788;2.302;2022-12-29T08:00:09;10.30;99.90
59847;DHT22;45728;48.788;2.302;2022-12-29T08:02:36;10.30;99.90
59847;DHT22;45728;48.788;2.302;2022-12-29T08:05:02;10.20;99.90
59847;DHT22;45728;48.788;2.302;2022-12-29T08:07:28;10.20;99.90
59847;DHT22;45728;48.788;2.302;2022-12-29T08:09:54;10.20;99.90
59847;DHT22;45728;48.788;2.302;2022-12-29T08:12:20;10.20;99.90
59847;DHT22;45728;48.788;2.302;2022-12-29T08:14:46;10.20;99.90
59847;DHT22;45728;48.788;2.302;2022-12-29T08:17:12;10.30;99.90
59847;DHT22;45728;48.788;2.302;2022-12-29T08:19:38;10.30;99.90
59847;DHT22;45728;48.788;2.302;2022-12-29T08:22:04;10.30;99.90
59847;DHT22;45728;48.788;2.302;2022-12-29T08:24:31;10.30;99.90
59847;DHT22;45728;48.788;2.302;2022-12-29T08:26:57;10.20;99.90
59847;DHT22;45728;48.788;2.302;2022-12-29T08:29:23;10.20;99.90
59847;DHT22;45728;48.788;2.302;2022-12-29T08:31:49;10.20;99.90
59847;DHT22;45728;48.788;2.302;2022-12-29T08:34:15;10.20;99.90
59847;DHT22;45728;48.788;2.302;2022-12-29T08:36:41;10.20;99.90
59847;DHT22;45728;48.788;2.302;2022-12-29T08:39:07;10.20;99.90
59847;DHT22;45728;48.788;2.302;2022-12-29T08:41:33;10.20;99.90
59847;DHT22;45728;48.788;2.302;2022-12-29T08:43:59;10.20;99.90
59847;DHT22;45728;48.788;2.302;2022-12-29T08:46:25;10.20;99.90
59847;DHT22;45728;48.788;2.302;2022-12-29T08:48:52;10.30;99.90
59847;DHT22;45728;48.788;2.302;2022-12-29T08:51:18;10.30;99.90
59847;DHT22;45728;48.788;2.302;2022-12-29T08:53:44;10.30;99.90
59847;DHT22;45728;48.788;2.302;2022-12-29T08:56:11;10.30;99.90
59847;DHT22;45728;48.788;2.302;2022-12-29T08:58:37;10.30;99.90
59847;DHT22;45728;48.788;2.302;2022-12-29T09:01:03;10.30;99.90
59847;DHT22;45728;48.788;2.302;2022-12-29T09:03:30;10.40;99.90
59847;DHT22;45728;48.788;2.302;2022-12-29T09:05:56;10.40;99.90
59847;DHT22;45728;48.788;2.302;2022-12-29T09:08:22;10.40;99.90
59847;DHT22;45728;48.788;2.302;2022-12-29T09:10:48;10.40;99.90
59847;DHT22;45728;48.788;2.302;2022-12-29T09:13:15;10.40;99.90
59847;DHT22;45728;48.788;2.302;2022-12-29T09:15:42;10.40;99.90
59847;DHT22;45728;48.788;2.302;2022-12-29T09:18:10;10.40;99.90
59847;DHT22;45728;48.788;2.302;2022-12-29T09:20:36;10.50;99.90
59847;DHT22;45728;48.788;2.302;2022-12-29T09:23:03;10.50;99.90
59847;DHT22;45728;48.788;2.302;2022-12-29T09:25:30;10.50;99.90
59847;DHT22;45728;48.788;2.302;2022-12-29T09:27:56;10.50;99.90
59847;DHT22;45728;48.788;2.302;2022-12-29T09:30:23;10.50;99.90
59847;DHT22;45728;48.788;2.302;2022-12-29T09:32:49;10.50;99.90
59847;DHT22;45728;48.788;2.302;2022-12-29T09:35:15;10.60;99.90
59847;DHT22;45728;48.788;2.302;2022-12-29T09:37:43;10.70;99.90
59847;DHT22;45728;48.788;2.302;2022-12-29T09:40:24;10.70;99.90
59847;DHT22;45728;48.788;2.302;2022-12-29T09:43:09;10.70;99.90
59847;DHT22;45728;48.788;2.302;2022-12-29T09:45:45;10.70;99.90
59847;DHT22;45728;48.788;2.302;2022-12-29T09:48:19;10.70;99.90
59847;DHT22;45728;48.788;2.302;2022-12-29T09:50:51;10.70;99.90
59847;DHT22;45728;48.788;2.302;2022-12-29T09:53:33;10.80;99.90
59847;DHT22;45728;48.788;2.302;2022-12-29T09:56:01;10.80;99.90
59847;DHT22;45728;48.788;2.302;2022-12-29T09:58:40;11.00;99.90
59847;DHT22;45728;48.788;2.302;2022-12-29T10:04:13;10.90;99.90
59847;DHT22;45728;48.788;2.302;2022-12-29T10:06:53;10.90;99.90
59847;DHT22;45728;48.788;2.302;2022-12-29T10:09:46;10.90;99.90
59847;DHT22;45728;48.788;2.302;2022-12-29T10:15:18;11.00;99.90
59847;DHT22;45728;48.788;2.302;2022-12-29T10:23:47;11.40;99.90
59847;DHT22;45728;48.788;2.302;2022-12-29T10:26:21;11.60;99.90
59847;DHT22;45728;48.788;2.302;2022-12-29T10:29:06;12.00;99.90
59847;DHT22;45728;48.788;2.302;2022-12-29T10:31:33;11.70;99.90
59847;DHT22;45728;48.788;2.302;2022-12-29T10:34:05;11.70;99.90
59847;DHT22;45728;48.788;2.302;2022-12-29T10:36:43;11.60;99.90
59847;DHT22;45728;48.788;2.302;2022-12-29T10:41:48;11.40;99.90
59847;DHT22;45728;48.788;2.302;2022-12-29T10:44:16;11.50;99.90
59847;DHT22;45728;48.788;2.302;2022-12-29T10:46:44;11.60;99.90
59847;DHT22;45728;48.788;2.302;2022-12-29T10:49:17;11.90;99.90
59847;DHT22;45728;48.788;2.302;2022-12-29T10:51:46;12.10;99.90
59847;DHT22;45728;48.788;2.302;2022-12-29T10:54:23;12.20;99.90
59847;DHT22;45728;48.788;2.302;2022-12-29T10:56:53;12.20;99.90
59847;DHT22;45728;48.788;2.302;2022-12-29T10:59:26;12.30;99.90
59847;DHT22;45728;48.788;2.302;2022-12-29T11:05:06;12.20;99.90
59847;DHT22;45728;48.788;2.302;2022-12-29T11:07:35;12.10;99.90
59847;DHT22;45728;48.788;2.302;2022-12-29T11:10:21;11.80;99.90
59847;DHT22;45728;48.788;2.302;2022-12-29T11:13:10;11.90;99.90
59847;DHT22;45728;48.788;2.302;2022-12-29T11:15:41;11.80;99.90
59847;DHT22;45728;48.788;2.302;2022-12-29T11:20:54;11.90;99.90
59847;DHT22;45728;48.788;2.302;2022-12-29T11:23:23;12.10;99.90
59847;DHT22;45728;48.788;2.302;2022-12-29T11:28:47;12.10;99.90
59847;DHT22;45728;48.788;2.302;2022-12-29T11:31:16;12.50;99.90
59847;DHT22;45728;48.788;2.302;2022-12-29T11:33:43;13.00;99.90
59847;DHT22;45728;48.788;2.302;2022-12-29T11:36:19;12.80;99.90
59847;DHT22;45728;48.788;2.302;2022-12-29T11:38:52;12.80;99.90
59847;DHT22;45728;48.788;2.302;2022-12-29T11:41:27;12.70;99.90
59847;DHT22;45728;48.788;2.302;2022-12-29T11:43:57;12.80;99.90
59847;DHT22;45728;48.788;2.302;2022-12-29T11:46:29;12.70;99.90
59847;DHT22;45728;48.788;2.302;2022-12-29T11:48:57;12.70;99.90
59847;DHT22;45728;48.788;2.302;2022-12-29T11:51:28;12.80;99.90
59847;DHT22;45728;48.788;2.302;2022-12-29T11:53:58;12.70;99.90
59847;DHT22;45728;48.788;2.302;2022-12-29T11:56:40;12.50;99.90
59847;DHT22;45728;48.788;2.302;2022-12-29T11:59:37;12.60;99.90
59847;DHT22;45728;48.788;2.302;2022-12-29T12:04:54;12.60;99.90
59847;DHT22;45728;48.788;2.302;2022-12-29T12:07:40;12.60;99.90
59847;DHT22;45728;48.788;2.302;2022-12-29T12:13:14;12.50;99.90
59847;DHT22;45728;48.788;2.302;2022-12-29T12:15:47;12.60;99.90
59847;DHT22;45728;48.788;2.302;2022-12-29T12:18:30;12.60;99.90
59847;DHT22;45728;48.788;2.302;2022-12-29T12:21:05;12.40;99.90
59847;DHT22;45728;48.788;2.302;2022-12-29T12:26:38;12.40;99.90
59847;DHT22;45728;48.788;2.302;2022-12-29T12:29:28;12.50;99.90
59847;DHT22;45728;48.788;2.302;2022-12-29T12:32:09;12.50;99.90
59847;DHT22;45728;48.788;2.302;2022-12-29T12:34:40;12.40;99.90
59847;DHT22;45728;48.788;2.302;2022-12-29T12:37:16;12.30;99.90
59847;DHT22;45728;48.788;2.302;2022-12-29T12:43:15;12.20;99.90
59847;DHT22;45728;48.788;2.302;2022-12-29T12:45:50;12.20;99.90
59847;DHT22;45728;48.788;2.302;2022-12-29T12:51:15;12.30;99.90
59847;DHT22;45728;48.788;2.302;2022-12-29T12:53:52;12.30;99.90
59847;DHT22;45728;48.788;2.302;2022-12-29T12:56:50;12.30;99.90
59847;DHT22;45728;48.788;2.302;2022-12-29T12:59:49;12.20;99.90
59847;DHT22;45728;48.788;2.302;2022-12-29T13:10:47;12.30;99.90
59847;DHT22;45728;48.788;2.302;2022-12-29T13:13:29;12.40;99.90
59847;DHT22;45728;48.788;2.302;2022-12-29T13:16:02;12.30;99.90
59847;DHT22;45728;48.788;2.302;2022-12-29T13:26:53;12.50;99.90
59847;DHT22;45728;48.788;2.302;2022-12-29T13:29:31;12.60;99.90
59847;DHT22;45728;48.788;2.302;2022-12-29T13:32:43;12.50;99.90
59847;DHT22;45728;48.788;2.302;2022-12-29T13:37:31;12.20;99.90
59847;DHT22;45728;48.788;2.302;2022-12-29T13:40:04;12.10;99.90
59847;DHT22;45728;48.788;2.302;2022-12-29T13:42:36;12.10;99.90
59847;DHT22;45728;48.788;2.302;2022-12-29T13:45:11;12.00;99.90
59847;DHT22;45728;48.788;2.302;2022-12-29T13:50:19;12.10;99.90
59847;DHT22;45728;48.788;2.302;2022-12-29T13:55:36;12.20;99.90
59847;DHT22;45728;48.788;2.302;2022-12-29T13:58:11;12.20;99.90
59847;DHT22;45728;48.788;2.302;2022-12-29T14:00:53;12.00;99.90
59847;DHT22;45728;48.788;2.302;2022-12-29T14:06:27;12.10;99.90
59847;DHT22;45728;48.788;2.302;2022-12-29T14:09:00;12.00;99.90
59847;DHT22;45728;48.788;2.302;2022-12-29T14:11:37;12.00;99.90
59847;DHT22;45728;48.788;2.302;2022-12-29T14:14:24;12.00;99.90
59847;DHT22;45728;48.788;2.302;2022-12-29T14:16:51;12.10;99.90
59847;DHT22;45728;48.788;2.302;2022-12-29T14:19:28;12.10;99.90
59847;DHT22;45728;48.788;2.302;2022-12-29T14:22:02;12.20;99.90
59847;DHT22;45728;48.788;2.302;2022-12-29T14:29:51;12.30;99.90
59847;DHT22;45728;48.788;2.302;2022-12-29T14:34:46;12.20;99.90
59847;DHT22;45728;48.788;2.302;2022-12-29T14:37:25;12.20;99.90
59847;DHT22;45728;48.788;2.302;2022-12-29T14:40:25;12.20;99.90
59847;DHT22;45728;48.788;2.302;2022-12-29T14:42:53;12.00;99.90
59847;DHT22;45728;48.788;2.302;2022-12-29T14:47:48;12.00;99.90
59847;DHT22;45728;48.788;2.302;2022-12-29T14:50:17;12.00;99.90
59847;DHT22;45728;48.788;2.302;2022-12-29T14:58:02;11.90;99.90
59847;DHT22;45728;48.788;2.302;2022-12-29T15:00:35;11.80;99.90
59847;DHT22;45728;48.788;2.302;2022-12-29T15:07:59;11.80;99.90
59847;DHT22;45728;48.788;2.302;2022-12-29T15:10:36;11.70;99.90
59847;DHT22;45728;48.788;2.302;2022-12-29T15:13:05;11.70;99.90
59847;DHT22;45728;48.788;2.302;2022-12-29T15:15:38;11.60;99.90
59847;DHT22;45728;48.788;2.302;2022-12-29T15:18:27;11.60;99.90
59847;DHT22;45728;48.788;2.302;2022-12-29T15:20:59;11.50;99.90
59847;DHT22;45728;48.788;2.302;2022-12-29T15:23:26;11.50;99.90
59847;DHT22;45728;48.788;2.302;2022-12-29T15:28:24;11.40;99.90
59847;DHT22;45728;48.788;2.302;2022-12-29T15:30:55;11.40;99.90
59847;DHT22;45728;48.788;2.302;2022-12-29T15:33:23;11.40;99.90
59847;DHT22;45728;48.788;2.302;2022-12-29T15:35:51;11.30;99.90
59847;DHT22;45728;48.788;2.302;2022-12-29T15:38:24;11.30;99.90
59847;DHT22;45728;48.788;2.302;2022-12-29T15:41:00;11.20;99.90
59847;DHT22;45728;48.788;2.302;2022-12-29T15:46:03;11.20;99.90
59847;DHT22;45728;48.788;2.302;2022-12-29T15:48:30;11.10;99.90
59847;DHT22;45728;48.788;2.302;2022-12-29T15:50:57;11.00;99.90
59847;DHT22;45728;48.788;2.302;2022-12-29T15:53:28;11.00;99.90
59847;DHT22;45728;48.788;2.302;2022-12-29T15:55:59;11.00;99.90
59847;DHT22;45728;48.788;2.302;2022-12-29T15:58:31;11.00;99.90
59847;DHT22;45728;48.788;2.302;2022-12-29T16:01:04;10.90;99.90
59847;DHT22;45728;48.788;2.302;2022-12-29T16:03:33;10.90;99.90
59847;DHT22;45728;48.788;2.302;2022-12-29T16:06:25;10.90;99.90
59847;DHT22;45728;48.788;2.302;2022-12-29T16:11:58;10.70;99.90
59847;DHT22;45728;48.788;2.302;2022-12-29T16:14:43;10.70;99.90
59847;DHT22;45728;48.788;2.302;2022-12-29T16:17:13;10.70;99.90
59847;DHT22;45728;48.788;2.302;2022-12-29T16:19:42;10.60;99.90
59847;DHT22;45728;48.788;2.302;2022-12-29T16:22:24;10.60;99.90
59847;DHT22;45728;48.788;2.302;2022-12-29T16:24:59;10.60;99.90
59847;DHT22;45728;48.788;2.302;2022-12-29T16:27:40;10.50;99.90
59847;DHT22;45728;48.788;2.302;2022-12-29T16:30:24;10.50;99.90
59847;DHT22;45728;48.788;2.302;2022-12-29T16:32:53;10.50;99.90
59847;DHT22;45728;48.788;2.302;2022-12-29T16:35:28;10.50;99.90
59847;DHT22;45728;48.788;2.302;2022-12-29T16:38:17;10.50;99.90
59847;DHT22;45728;48.788;2.302;2022-12-29T16:43:22;10.30;99.90
59847;DHT22;45728;48.788;2.302;2022-12-29T16:48:26;10.30;99.90
59847;DHT22;45728;48.788;2.302;2022-12-29T16:51:12;10.30;99.90
59847;DHT22;45728;48.788;2.302;2022-12-29T16:53:41;10.30;99.90
59847;DHT22;45728;48.788;2.302;2022-12-29T16:56:37;10.20;99.90
59847;DHT22;45728;48.788;2.302;2022-12-29T17:01:56;10.10;99.90
59847;DHT22;45728;48.788;2.302;2022-12-29T17:04:23;10.10;99.90
59847;DHT22;45728;48.788;2.302;2022-12-29T17:06:49;10.10;99.90
59847;DHT22;45728;48.788;2.302;2022-12-29T17:09:23;10.00;99.90
59847;DHT22;45728;48.788;2.302;2022-12-29T17:11:52;10.00;99.90
59847;DHT22;45728;48.788;2.302;2022-12-29T17:16:57;9.90;99.90
59847;DHT22;45728;48.788;2.302;2022-12-29T17:19:36;9.90;99.90
59847;DHT22;45728;48.788;2.302;2022-12-29T17:22:09;9.90;99.90
59847;DHT22;45728;48.788;2.302;2022-12-29T17:24:36;9.80;99.90
59847;DHT22;45728;48.788;2.302;2022-12-29T17:27:03;9.80;99.90
59847;DHT22;45728;48.788;2.302;2022-12-29T17:29:33;9.70;99.90
59847;DHT22;45728;48.788;2.302;2022-12-29T17:32:03;9.80;99.90
59847;DHT22;45728;48.788;2.302;2022-12-29T17:34:31;9.80;99.90
59847;DHT22;45728;48.788;2.302;2022-12-29T17:36:57;9.70;99.90
59847;DHT22;45728;48.788;2.302;2022-12-29T17:39:23;9.70;99.90
59847;DHT22;45728;48.788;2.302;2022-12-29T17:41:49;9.70;99.90
59847;DHT22;45728;48.788;2.302;2022-12-29T17:44:18;9.70;99.90
59847;DHT22;45728;48.788;2.302;2022-12-29T17:46:45;9.60;99.90
59847;DHT22;45728;48.788;2.302;2022-12-29T17:49:13;9.40;99.90
59847;DHT22;45728;48.788;2.302;2022-12-29T17:51:41;9.30;99.90
59847;DHT22;45728;48.788;2.302;2022-12-29T17:54:20;9.30;99.90
59847;DHT22;45728;48.788;2.302;2022-12-29T17:56:47;9.40;99.90
59847;DHT22;45728;48.788;2.302;2022-12-29T17:59:14;9.40;99.90
59847;DHT22;45728;48.788;2.302;2022-12-29T18:01:42;9.40;99.90
59847;DHT22;45728;48.788;2.302;2022-12-29T18:04:18;9.40;99.90
59847;DHT22;45728;48.788;2.302;2022-12-29T18:06:45;9.40;99.90
59847;DHT22;45728;48.788;2.302;2022-12-29T18:09:12;9.40;99.90
59847;DHT22;45728;48.788;2.302;2022-12-29T18:11:42;9.40;99.90
59847;DHT22;45728;48.788;2.302;2022-12-29T18:14:14;9.50;99.90
59847;DHT22;45728;48.788;2.302;2022-12-29T18:16:40;9.40;99.90
59847;DHT22;45728;48.788;2.302;2022-12-29T18:19:06;9.40;99.90